• Join FlightAware (Why Join?)
  • Login
  • US Flag GB Flag 
03:41 EST


 

Airport Tracker/Info


-or-


 

Live Flight TrackerFlight Track Log ✈ CTL17 ✈ 02-Jul-2013 ✈ KPTK - KMBS

Flight Track Log - Related Links

Times and Time Zones

All times are in EDT time to prevent confusion due to time zone crossing. See the CTL17 flight status page for this flight to view local times or setup timezone preferences in your user account.

Time Position Orientation Groundspeed Altitude Reporting Facility
EDT Latitude Longitude Course Direction KTS MPH feet Rate Location/Type
15:53 42.6633 -83.3983 85° East 113 130 1,300  Level Cleveland Center
15:54 42.6672 -83.3308 85° East 127 146 2,500 780 Climbing Cleveland Center
15:56 42.7095 -83.3751 322° Northwest  Level FlightAware Approximate
16:03 42.9562 -83.4285 321° Northwest  Level FlightAware Approximate
16:04 42.9836 -83.4586 321° Northwest  Level FlightAware Approximate
16:05 43.0110 -83.4888 321° Northwest  Level FlightAware Approximate
16:06 43.0384 -83.5190 321° Northwest  Level FlightAware Approximate
16:07 43.0658 -83.5493 321° Northwest  Level FlightAware Approximate
16:08 43.0931 -83.5796 321° Northwest  Level FlightAware Approximate
16:09 43.1205 -83.6098 321° Northwest  Level FlightAware Approximate
16:10 43.1478 -83.6402 321° Northwest  Level FlightAware Approximate
16:11 43.1752 -83.6705 321° Northwest  Level FlightAware Approximate
16:12 43.2025 -83.7009 321° Northwest  Level FlightAware Approximate
16:13 43.2293 -83.7321 318° Northwest  Level FlightAware Approximate
16:14 43.2556 -83.7642 318° Northwest  Level FlightAware Approximate
16:15 43.2819 -83.7963 318° Northwest  Level FlightAware Approximate
16:16 43.3082 -83.8284 318° Northwest  Level FlightAware Approximate
16:17 43.3345 -83.8606 318° Northwest  Level FlightAware Approximate
16:18 43.3608 -83.8928 318° Northwest  Level FlightAware Approximate
16:19 43.3887 -83.9220 324° Northwest  Level FlightAware Approximate
16:20 43.4172 -83.9505 324° Northwest  Level FlightAware Approximate
16:21 43.4457 -83.9789 324° Northwest  Level FlightAware Approximate
16:22 43.4741 -84.0074 324° Northwest  Level FlightAware Approximate
16:23 43.5018 -84.0370 305° West  Level FlightAware Approximate
16:24 43.5167 -84.0667 305° West  Level FlightAware Approximate